x

8454049 - Quonset Point, Ri (qptr1) Weather Station

8:18 - Mon 31st Aug 2015 All times are EDT. -4 hours from GMT.

  • Wind
    7mph, 8mph gusts
  • Sea Temp 75°f
  • Air Temp 78°f
  • Sea Pressure 1013.5mb
  • 8454049 - Quonset Point, Ri
  • 8454049 - Quonset Point, Ri

More Historic Weather Station data

Upgrade to MSW Pro to gain access to the past 30 days of data for over 8000 Wavebouys and Weather Stations around the globe.

Join Pro

Comparision Forecast

View Surf forecast
   
lun. 08/31 8:18 7 8 mph 1013.5mb 75f 78f
8:12 8
mph
1013.4mb 76f 78f
8:06 7
mph
1013.3mb 76f 78f
8:00 7
mph
1013.3mb 76f 78f
7:54 7 8 mph 1013.3mb 76f 79f
7:48 8
mph
1013.3mb 76f 79f
7:42 7 8 mph 1013.2mb 75f 79f
7:36 7
mph
1013.2mb 75f 78f
7:00 7 9 mph 1013mb 75f 82f
6:54 8 9 mph 1013mb 75f 82f
6:48 8 9 mph 1012.9mb 75f 82f
6:42 8 9 mph 1012.9mb 75f 82f
6:36 8 9 mph 1012.9mb 75f 82f
6:30 9 11 mph 1012.9mb 75f 82f
6:24 10 11 mph 1012.8mb 75f 83f
6:18 10 11 mph 1012.9mb 75f 83f
6:12 10 14 mph 1012.9mb 75f 83f
6:06 13 16 mph 1012.8mb 75f 84f
6:00 14 17 mph 1012.8mb 75f 84f
5:54 13 17 mph 1012.8mb 75f 83f
5:48 11 13 mph 1012.7mb 75f 83f
5:42 13 16 mph 1012.7mb 75f 84f
5:36 11 16 mph 1012.6mb 75f 84f
5:30 13 15 mph 1012.6mb 75f 84f
5:24 14 17 mph 1012.6mb 75f 85f
5:18 10 13 mph 1012.7mb 75f 85f
5:12 10 16 mph 1012.6mb 75f 84f
5:06 13 16 mph 1012.6mb 75f 85f
5:00 11 16 mph 1012.5mb 75f 85f
4:54 9 16 mph 1012.4mb 75f 85f
4:48 14 17 mph 1012.4mb 75f 85f
4:42 11 16 mph 1012.3mb 75f 85f
4:36 10 15 mph 1012.3mb 75f 85f
4:30 13 18 mph 1012.3mb 75f 85f
4:24 14 20 mph 1012.3mb 74f 84f
4:18 13 16 mph 1012.3mb 74f 85f
4:12 14 17 mph 1012.4mb 74f 85f
4:06 13 17 mph 1012.5mb 74f 85f
4:00 15 20 mph 1012.5mb 74f 86f
3:54 14 20 mph 1012.5mb 74f 86f
3:48 15 20 mph 1012.5mb 74f 85f
3:42 16 20 mph 1012.5mb 75f 85f
3:36 13 17 mph 1012.6mb 74f 85f
3:30 14 17 mph 1012.7mb 74f 86f
3:24 13 17 mph 1012.8mb 74f 86f
3:18 6 9 mph 1012.9mb 74f 87f
3:12 8 11 mph 1012.9mb 74f 86f
3:06 10 15 mph 1013mb 74f 86f
3:00 10 16 mph 1013mb 74f 86f
2:54 8 15 mph 1013.1mb 74f 87f
2:48 15 18 mph 1013.2mb 74f 85f
2:42 11 17 mph 1013.1mb 74f 85f
2:36 10 20 mph 1013.2mb 74f 87f
2:30 14 21 mph 1013.3mb 74f 86f
2:24 14 22 mph 1013.4mb 74f 87f
2:18 11 22 mph 1013.5mb 74f 84f
2:12 16 21 mph 1013.6mb 74f 84f
2:06 16 22 mph 1013.6mb 74f 85f
2:00 14 17 mph 1013.6mb 74f 84f
1:54 13 16 mph 1013.7mb 74f 84f
1:48 10 15 mph 1013.8mb 74f 85f
1:42 11 17 mph 1013.9mb 74f 85f
1:36 9 13 mph 1013.9mb 74f 86f
1:30 7 14 mph 1014mb 74f 86f
1:24 13 16 mph 1014.1mb 74f 84f
1:18 7 13 mph 1014.1mb 74f 86f
1:12 8 13 mph 1014.2mb 74f 84f
1:06 11 15 mph 1014.2mb 74f 84f
1:00 11 15 mph 1014.2mb 74f 84f
12:54 10 14 mph 1014.3mb 74f 84f
12:48 10 17 mph 1014.4mb 74f 85f
12:42 9 15 mph 1014.3mb 74f 85f
12:36 11 15 mph 1014.4mb 74f 84f
12:30 11 17 mph 1014.5mb 74f 84f
12:24 7 13 mph 1014.6mb 74f 85f
12:18 10 15 mph 1014.6mb 74f 84f
12:12 5 11 mph 1014.7mb 74f 85f
12:06 2 10 mph 1014.8mb 74f 82f
12:00 3 5 mph 1014.8mb 74f 80f
ven. 08/28 1:30 8 9 mph 1020.4mb 75f 74f
1:24 5 8 mph 1020.4mb 75f 75f
1:18 7 8 mph 1020.4mb 75f 74f
1:12 3 7 mph 1020.5mb 75f 75f
1:06 5 9 mph 1020.5mb 75f 74f
1:00 6 8 mph 1020.5mb 75f 74f
12:54 7 8 mph 1020.6mb 75f 73f
12:48 7 8 mph 1020.6mb 75f 73f
12:42 7
mph
1020.7mb 75f 73f
12:36 5 7 mph 1020.8mb 75f 73f
12:30 7 8 mph 1020.8mb 75f 72f
12:24 6 7 mph 1020.8mb 74f 72f
12:18 5 6 mph 1020.9mb 74f 72f
12:12 5 6 mph 1021mb 74f 72f
12:06 5
mph
1021.1mb 74f 72f
12:00 5
mph
1021.1mb 74f 72f
11:54 3 6 mph 1021.1mb 74f 72f
11:48 5
mph
1021.1mb 74f 72f
11:42 2 5 mph 1021.2mb 74f 72f
11:36 3 5 mph 1021.1mb 74f 72f
11:30 3 5 mph 1021.1mb 74f 72f
11:24 3 5 mph 1021.2mb 74f 72f
11:18 5 6 mph 1021.2mb 74f 72f
11:12 5 6 mph 1021.2mb 74f 71f
11:06 5 6 mph 1021.2mb 74f 71f
11:00 5 7 mph 1021.2mb 74f 71f
10:54 6 7 mph 1021.2mb 74f 71f
10:48 6 7 mph 1021.2mb 74f 71f
10:42 6 8 mph 1021.2mb 74f 71f
10:36 6 8 mph 1021.2mb 74f 70f
10:30 7 8 mph 1021.2mb 74f 70f
10:24 7 9 mph 1021.2mb 74f 70f
10:18 6 9 mph 1021.2mb 74f 70f
10:12 8 9 mph 1021.1mb 74f 70f
10:06 7 10 mph 1021mb 74f 70f
10:00 9 10 mph 1021mb 74f 70f
9:54 9 10 mph 1021mb 74f 69f
9:48 9 13 mph 1021mb 74f 69f
9:42 10 14 mph 1021mb 74f 69f
9:36 9 11 mph 1020.9mb 74f 69f
9:30 9 10 mph 1020.9mb 74f 69f
9:24 9 13 mph 1020.8mb 74f 69f
9:18 8 11 mph 1020.8mb 74f 69f
9:12 10 13 mph 1020.7mb 74f 69f
9:06 9 13 mph 1020.7mb 74f 69f
9:00 10 11 mph 1020.7mb 74f 68f
8:54 11 14 mph 1020.7mb 74f 69f
8:48 10 13 mph 1020.6mb 74f 68f
8:42 8 13 mph 1020.6mb 74f 68f
8:36 10 13 mph 1020.6mb 74f 68f
8:30 9 11 mph 1020.6mb 74f 68f
8:24 8 10 mph 1020.6mb 74f 68f
8:18 7 10 mph 1020.5mb 74f 68f
8:12 8 10 mph 1020.5mb 74f 67f
8:06 7 9 mph 1020.5mb 74f 67f
8:00 6 8 mph 1020.5mb 74f 67f
7:54 3 6 mph 1020.4mb 74f 67f
7:48 2 6 mph 1020.5mb 74f 67f
7:42 3 5 mph 1020.4mb 74f 66f
7:36 2 5 mph 1020.4mb 74f 66f
7:30 3 6 mph 1020.3mb 74f 65f
7:24 5 6 mph 1020.3mb 74f 65f
7:18 3 5 mph 1020.3mb 74f 64f
7:12 3 5 mph 1020.3mb 74f 64f
7:06 3
mph
1020.2mb 74f 64f
7:00 2 3 mph 1020.2mb 74f 64f
6:54 3
mph
1020.2mb 74f 64f
6:48 2 3 mph 1020.1mb 74f 64f
6:42 3 5 mph 1020mb 75f 64f
6:36 3
mph
1019.9mb 75f 64f
6:30 2 3 mph 1019.8mb 75f 63f
6:24 2 3 mph 1019.8mb 75f 63f
6:18 2 5 mph 1019.7mb 75f 62f
6:12 3 5 mph 1019.6mb 75f 62f
6:06 3 5 mph 1019.6mb 75f 62f
6:00 5
mph
1019.5mb 75f 62f
5:54 3 5 mph 1019.5mb 75f 62f
5:48 2 5 mph 1019.5mb 75f 62f
5:42 3 6 mph 1019.5mb 75f 62f
5:36 3 5 mph 1019.5mb 75f 62f
5:30 3
mph
1019.5mb 74f 62f
5:24 2 5 mph 1019.4mb 74f 62f
5:18 3 5 mph 1019.3mb 74f 62f
5:12 5 6 mph 1019.3mb 74f 62f
5:06 3 5 mph 1019.3mb 74f 63f
5:00 3 5 mph 1019.3mb 74f 63f
4:54 2 3 mph 1019.3mb 74f 63f
4:48 1 2 mph 1019.3mb 74f 63f
4:42  -  3 mph 1019.2mb 74f 63f
4:36 3 5 mph 1019.2mb 74f 63f
4:30 3 5 mph 1019.1mb 74f 63f
4:24 2 3 mph 1019.1mb 74f 63f
4:18 3 8 mph 1019.1mb 74f 63f
4:12 6 7 mph 1019mb 74f 63f
4:06 5 6 mph 1019mb 74f 63f
4:00 5 7 mph 1019mb 74f 63f
3:54 6 7 mph 1019mb 74f 63f
3:48 5 6 mph 1019mb 74f 63f
3:42 5 6 mph 1018.9mb 74f 63f
3:36 5 7 mph 1018.9mb 74f 63f
3:30 6 8 mph 1018.9mb 74f 63f
3:24 6 8 mph 1018.8mb 74f 63f
3:18  -  mph - - 63f
3:12  -  mph - - 64f
3:06  -  mph - - 64f
3:00 7 9 mph 1018.7mb 74f 64f
2:54 8 10 mph 1018.6mb 74f 64f
2:48 7 10 mph 1018.6mb 74f 64f
2:42 7 9 mph 1018.7mb 74f 64f
2:36 7 9 mph 1018.6mb 74f 64f
2:30 8 10 mph 1018.6mb 74f 64f
2:24 6 8 mph 1018.6mb 74f 65f
2:18 6 9 mph 1018.6mb 74f 65f
2:12 7 9 mph 1018.6mb 74f 65f
2:06 6 9 mph 1018.6mb 74f 65f
2:00 6 10 mph 1018.7mb 74f 65f
1:54 6 8 mph 1018.6mb 74f 65f
1:48 6 9 mph 1018.7mb 74f 65f
1:42 6 9 mph 1018.7mb 74f 66f
1:36 6 9 mph 1018.7mb 74f 66f
1:30 6 8 mph 1018.7mb 74f 66f
1:24 6 9 mph 1018.7mb 74f 66f
1:18 6 8 mph 1018.7mb 74f 66f
1:12 5 8 mph 1018.7mb 74f 66f
1:06 6 8 mph 1018.7mb 74f 66f